createdAt,value
2023-01-01T00:00:07.847Z,0
2023-01-01T00:03:07.987Z,0
2023-01-01T00:06:07.775Z,0
2023-01-01T00:09:07.767Z,0
2023-01-01T00:12:07.693Z,0
2023-01-01T00:15:07.769Z,0
2023-01-01T00:18:07.715Z,0
2023-01-01T00:21:07.820Z,0
2023-01-01T00:24:07.815Z,0
2023-01-01T00:27:07.687Z,0
2023-01-01T00:30:07.975Z,0
2023-01-01T00:33:08.205Z,0
2023-01-01T00:36:07.819Z,0
2023-01-01T00:39:07.733Z,0
2023-01-01T00:42:07.685Z,0
2023-01-01T00:45:07.853Z,0
2023-01-01T00:48:07.718Z,0
2023-01-01T00:51:07.725Z,0
2023-01-01T00:54:07.849Z,0
2023-01-01T00:57:07.671Z,0
2023-01-01T01:00:07.749Z,0
2023-01-01T01:03:08.358Z,0
2023-01-01T01:06:08.620Z,0
2023-01-01T01:09:07.823Z,0
2023-01-01T01:12:25.871Z,0
2023-01-01T01:15:07.765Z,0
2023-01-01T01:18:07.712Z,0
2023-01-01T01:21:07.875Z,0
2023-01-01T01:24:07.804Z,0
2023-01-01T01:27:07.714Z,0
2023-01-01T01:30:10.056Z,0
2023-01-01T01:33:07.767Z,0
2023-01-01T01:36:07.744Z,0
2023-01-01T01:39:07.817Z,0
2023-01-01T01:42:07.773Z,0
2023-01-01T01:45:08.474Z,0
2023-01-01T01:48:07.781Z,0
2023-01-01T01:51:07.846Z,0
2023-01-01T01:54:09.545Z,0
2023-01-01T01:57:07.751Z,0
2023-01-01T02:00:18.702Z,0
2023-01-01T02:03:08.365Z,0
2023-01-01T02:06:07.705Z,0
2023-01-01T02:09:07.759Z,0
2023-01-01T02:12:07.884Z,0
2023-01-01T02:15:07.766Z,0
2023-01-01T02:18:07.889Z,0
2023-01-01T02:21:07.832Z,0
2023-01-01T02:24:07.825Z,0
2023-01-01T02:27:07.882Z,0
2023-01-01T02:30:07.975Z,0
2023-01-01T02:33:07.751Z,0
2023-01-01T02:36:11.754Z,0
2023-01-01T02:39:07.727Z,0
2023-01-01T02:42:07.766Z,0
2023-01-01T02:45:07.759Z,0
2023-01-01T02:48:08.174Z,0
2023-01-01T02:51:07.790Z,0
2023-01-01T02:54:07.704Z,0
2023-01-01T02:57:09.104Z,0
2023-01-01T03:00:07.797Z,0
2023-01-01T03:03:08.525Z,0
2023-01-01T03:06:07.698Z,0
2023-01-01T03:09:07.743Z,0
2023-01-01T03:12:07.761Z,0
2023-01-01T03:15:07.847Z,0
2023-01-01T03:18:07.954Z,0
2023-01-01T03:21:07.892Z,0
2023-01-01T03:24:07.690Z,0
2023-01-01T03:27:07.686Z,0
2023-01-01T03:30:07.762Z,0
2023-01-01T03:33:08.107Z,0
2023-01-01T03:36:07.664Z,0
2023-01-01T03:39:07.646Z,0
2023-01-01T03:42:07.725Z,0
2023-01-01T03:45:07.695Z,0
2023-01-01T03:48:07.724Z,0
2023-01-01T03:51:07.776Z,0
2023-01-01T03:54:07.715Z,0
2023-01-01T03:57:07.662Z,0
2023-01-01T04:00:07.734Z,0
2023-01-01T04:03:08.009Z,0
2023-01-01T04:06:07.749Z,0
2023-01-01T04:09:07.754Z,0
2023-01-01T04:12:07.684Z,0
2023-01-01T04:15:07.727Z,0
2023-01-01T04:18:07.722Z,0
2023-01-01T04:21:07.698Z,0
2023-01-01T04:24:07.711Z,0
2023-01-01T04:27:08.334Z,0
2023-01-01T04:30:07.778Z,0
2023-01-01T04:33:07.644Z,0
2023-01-01T04:36:07.683Z,0
2023-01-01T04:39:07.696Z,0
2023-01-01T04:42:07.784Z,0
2023-01-01T04:45:07.861Z,0
2023-01-01T04:48:07.715Z,0
2023-01-01T04:51:07.633Z,0
2023-01-01T04:54:07.840Z,0
2023-01-01T04:57:07.617Z,0
2023-01-01T05:00:07.824Z,0
2023-01-01T05:03:07.893Z,0
2023-01-01T05:06:07.756Z,0
2023-01-01T05:09:07.748Z,0
2023-01-01T05:12:07.843Z,0
2023-01-01T05:15:07.704Z,0
2023-01-01T05:18:07.695Z,0
2023-01-01T05:21:07.694Z,0
2023-01-01T05:24:07.729Z,0
2023-01-01T05:27:07.727Z,0
2023-01-01T05:30:07.793Z,0
2023-01-01T05:33:07.680Z,0
2023-01-01T05:36:07.823Z,0
2023-01-01T05:39:07.679Z,0
2023-01-01T05:42:07.695Z,0
2023-01-01T05:45:08.005Z,0
2023-01-01T05:48:07.771Z,0
2023-01-01T05:51:07.704Z,0
2023-01-01T05:54:07.804Z,0
2023-01-01T05:57:07.875Z,0
2023-01-01T06:00:07.721Z,0
2023-01-01T06:03:07.736Z,0
2023-01-01T06:06:07.754Z,0
2023-01-01T06:09:07.805Z,0
2023-01-01T06:12:07.789Z,0
2023-01-01T06:15:07.663Z,0
2023-01-01T06:18:07.793Z,0
2023-01-01T06:21:07.673Z,0
2023-01-01T06:24:07.879Z,0
2023-01-01T06:27:07.812Z,0
2023-01-01T06:30:08.018Z,0
2023-01-01T06:33:07.748Z,0
2023-01-01T06:36:07.694Z,0
2023-01-01T06:39:07.696Z,0
2023-01-01T06:42:07.869Z,0
2023-01-01T06:45:07.808Z,0
2023-01-01T06:48:07.676Z,0
2023-01-01T06:51:07.703Z,0
2023-01-01T06:54:07.786Z,3
2023-01-01T06:57:07.820Z,3
2023-01-01T07:00:07.832Z,3
2023-01-01T07:03:08.618Z,7
2023-01-01T07:06:07.677Z,10
2023-01-01T07:09:07.844Z,13
2023-01-01T07:12:07.758Z,23
2023-01-01T07:15:07.917Z,40
2023-01-01T07:18:07.755Z,57
2023-01-01T07:21:07.703Z,77
2023-01-01T07:24:07.875Z,97
2023-01-01T07:27:07.747Z,110
2023-01-01T07:30:07.984Z,130
2023-01-01T07:33:07.759Z,160
2023-01-01T07:36:07.783Z,213
2023-01-01T07:39:07.982Z,273
2023-01-01T07:42:17.429Z,380
2023-01-01T07:45:07.873Z,477
2023-01-01T07:48:07.987Z,590
2023-01-01T07:51:07.761Z,660
2023-01-01T07:54:14.301Z,683
2023-01-01T07:57:07.723Z,767
2023-01-01T08:00:07.945Z,880
2023-01-01T08:03:08.255Z,907
2023-01-01T08:06:07.748Z,1077
2023-01-01T08:09:07.703Z,1180
2023-01-01T08:12:07.771Z,1513
2023-01-01T08:15:07.833Z,1273
2023-01-01T08:18:07.895Z,1067
2023-01-01T08:21:07.844Z,1177
2023-01-01T08:24:07.805Z,1860
2023-01-01T08:27:07.715Z,2533
2023-01-01T08:30:08.012Z,2337
2023-01-01T08:33:07.770Z,2730
2023-01-01T08:36:07.772Z,2920
2023-01-01T08:39:07.815Z,2333
2023-01-01T08:42:14.931Z,2867
2023-01-01T08:45:08.057Z,3537
2023-01-01T08:48:07.706Z,4093
2023-01-01T08:51:07.934Z,4997
2023-01-01T08:54:07.773Z,4893
2023-01-01T08:57:07.806Z,4003
2023-01-01T09:00:08.088Z,2747
2023-01-01T09:03:08.567Z,2820
2023-01-01T09:06:07.824Z,3310
2023-01-01T09:09:07.946Z,3693
2023-01-01T09:12:07.849Z,4060
2023-01-01T09:15:07.836Z,4407
2023-01-01T09:18:07.816Z,4357
2023-01-01T09:21:07.717Z,3663
2023-01-01T09:24:07.752Z,2840
2023-01-01T09:27:07.794Z,2587
2023-01-01T09:30:08.072Z,2803
2023-01-01T09:33:07.712Z,3463
2023-01-01T09:36:07.669Z,4740
2023-01-01T09:39:07.878Z,4973
2023-01-01T09:42:07.737Z,5573
2023-01-01T09:45:07.750Z,5793
2023-01-01T09:48:07.746Z,6100
2023-01-01T09:51:07.738Z,6187
2023-01-01T09:54:07.877Z,6227
2023-01-01T09:57:07.736Z,7223
2023-01-01T10:00:08.031Z,8203
2023-01-01T10:03:07.832Z,8680
2023-01-01T10:06:07.745Z,8687
2023-01-01T10:09:08.303Z,8787
2023-01-01T10:12:07.861Z,9023
2023-01-01T10:15:08.133Z,8490
2023-01-01T10:18:07.725Z,8957
2023-01-01T10:21:07.690Z,8693
2023-01-01T10:24:07.842Z,9377
2023-01-01T10:27:07.727Z,8293
2023-01-01T10:30:11.906Z,7887
2023-01-01T10:33:07.920Z,8843
2023-01-01T10:36:07.736Z,9910
2023-01-01T10:39:07.692Z,10880
2023-01-01T10:42:07.916Z,11933
2023-01-01T10:45:07.851Z,12537
2023-01-01T10:48:07.745Z,11790
2023-01-01T10:51:07.745Z,12517
2023-01-01T10:54:07.841Z,12890
2023-01-01T10:57:07.665Z,11770
2023-01-01T11:00:07.806Z,10443
2023-01-01T11:03:08.083Z,10237
2023-01-01T11:06:07.823Z,9623
2023-01-01T11:09:07.860Z,8563
2023-01-01T11:15:08.046Z,8660
2023-01-01T11:18:07.798Z,6423
2023-01-01T11:21:07.830Z,5380
2023-01-01T11:24:07.820Z,6823
2023-01-01T11:27:07.750Z,7197
2023-01-01T11:30:07.879Z,7280
2023-01-01T11:33:07.838Z,9407
2023-01-01T11:36:07.759Z,9717
2023-01-01T11:39:07.814Z,7077
2023-01-01T11:42:07.913Z,6213
2023-01-01T11:45:07.758Z,5720
2023-01-01T11:48:07.908Z,3830
2023-01-01T11:51:07.719Z,3790
2023-01-01T11:54:07.950Z,3330
2023-01-01T11:57:07.852Z,2750
2023-01-01T12:00:08.035Z,2787
2023-01-01T12:03:07.883Z,3800
2023-01-01T12:06:07.781Z,4367
2023-01-01T12:09:09.131Z,5603
2023-01-01T12:12:07.870Z,7250
2023-01-01T12:15:07.803Z,8700
2023-01-01T12:18:07.811Z,9110
2023-01-01T12:21:07.754Z,9353
2023-01-01T12:24:07.703Z,9250
2023-01-01T12:27:17.608Z,9247
2023-01-01T12:30:07.901Z,9193
2023-01-01T12:33:15.236Z,8923
2023-01-01T12:36:07.783Z,8320
2023-01-01T12:39:07.775Z,7257
2023-01-01T12:42:07.767Z,6923
2023-01-01T12:45:07.782Z,6930
2023-01-01T12:48:07.788Z,6167
2023-01-01T12:51:12.549Z,5537
2023-01-01T12:54:07.805Z,5500
2023-01-01T12:57:07.760Z,6273
2023-01-01T13:00:07.900Z,6253
2023-01-01T13:03:08.425Z,6230
2023-01-01T13:06:07.866Z,6190
2023-01-01T13:09:07.725Z,6143
2023-01-01T13:12:07.800Z,6410
2023-01-01T13:15:07.810Z,5953
2023-01-01T13:18:07.834Z,5457
2023-01-01T13:21:07.655Z,5687
2023-01-01T13:24:07.753Z,5163
2023-01-01T13:27:17.303Z,4910
2023-01-01T13:30:07.908Z,4693
2023-01-01T13:33:07.743Z,4653
2023-01-01T13:36:07.769Z,4643
2023-01-01T13:39:07.839Z,4623
2023-01-01T13:42:07.749Z,4330
2023-01-01T13:45:07.767Z,4160
2023-01-01T13:48:07.753Z,3987
2023-01-01T13:51:07.846Z,3753
2023-01-01T13:54:07.909Z,3950
2023-01-01T13:57:07.762Z,3957
2023-01-01T14:00:08.060Z,3407
2023-01-01T14:03:08.220Z,3300
2023-01-01T14:06:07.815Z,3343
2023-01-01T14:09:07.773Z,3133
2023-01-01T14:12:07.748Z,2883
2023-01-01T14:15:07.790Z,2763
2023-01-01T14:18:07.860Z,2537
2023-01-01T14:21:07.787Z,2433
2023-01-01T14:24:08.056Z,2113
2023-01-01T14:27:07.856Z,1880
2023-01-01T14:30:07.814Z,1800
2023-01-01T14:33:07.819Z,1757
2023-01-01T14:36:07.718Z,1617
2023-01-01T14:39:07.852Z,1503
2023-01-01T14:42:07.884Z,1440
2023-01-01T14:45:07.886Z,1243
2023-01-01T14:48:07.798Z,963
2023-01-01T14:51:07.828Z,820
2023-01-01T14:54:07.872Z,713
2023-01-01T14:57:07.927Z,567
2023-01-01T15:00:07.963Z,470
2023-01-01T15:03:08.292Z,387
2023-01-01T15:06:07.860Z,333
2023-01-01T15:09:07.743Z,277
2023-01-01T15:12:08.028Z,217
2023-01-01T15:15:07.691Z,167
2023-01-01T15:18:07.756Z,130
2023-01-01T15:21:07.656Z,103
2023-01-01T15:24:07.625Z,83
2023-01-01T15:27:07.756Z,63
2023-01-01T15:30:16.165Z,47
2023-01-01T15:33:07.695Z,30
2023-01-01T15:36:07.743Z,20
2023-01-01T15:39:07.688Z,13
2023-01-01T15:42:07.796Z,7
2023-01-01T15:45:07.765Z,3
2023-01-01T15:48:07.756Z,3
2023-01-01T15:51:07.771Z,0
2023-01-01T15:54:07.744Z,0
2023-01-01T15:57:07.902Z,0
2023-01-01T16:00:07.828Z,0
2023-01-01T16:03:08.065Z,0
2023-01-01T16:06:07.709Z,0
2023-01-01T16:09:07.852Z,0
2023-01-01T16:12:07.947Z,0
2023-01-01T16:15:07.671Z,0
2023-01-01T16:18:07.784Z,0
2023-01-01T16:21:07.759Z,0
2023-01-01T16:24:07.732Z,0
2023-01-01T16:27:07.712Z,0
2023-01-01T16:30:07.834Z,0
2023-01-01T16:33:07.681Z,0
2023-01-01T16:36:07.685Z,0
2023-01-01T16:39:07.760Z,0
2023-01-01T16:42:07.659Z,0
2023-01-01T16:45:07.709Z,0
2023-01-01T16:48:07.617Z,0
2023-01-01T16:51:07.750Z,0
2023-01-01T16:54:07.865Z,0
2023-01-01T16:57:07.678Z,0
2023-01-01T17:00:07.825Z,0
2023-01-01T17:03:07.957Z,0
2023-01-01T17:06:07.680Z,0
2023-01-01T17:09:07.642Z,0
2023-01-01T17:12:07.869Z,0
2023-01-01T17:15:07.832Z,0
2023-01-01T17:18:07.725Z,0
2023-01-01T17:21:07.657Z,0
2023-01-01T17:24:07.636Z,0
2023-01-01T17:27:07.726Z,0
2023-01-01T17:30:07.861Z,0
2023-01-01T17:33:07.691Z,0
2023-01-01T17:36:07.695Z,0
2023-01-01T17:39:07.711Z,0
2023-01-01T17:42:07.780Z,0
2023-01-01T17:45:07.809Z,0
2023-01-01T17:48:07.724Z,0
2023-01-01T17:51:07.693Z,0
2023-01-01T17:54:07.767Z,0
2023-01-01T17:57:07.685Z,0
2023-01-01T18:00:07.806Z,0
2023-01-01T18:03:08.405Z,0
2023-01-01T18:06:08.408Z,0
2023-01-01T18:09:07.748Z,0
2023-01-01T18:12:07.722Z,0
2023-01-01T18:15:07.771Z,0
2023-01-01T18:18:07.745Z,0
2023-01-01T18:21:07.769Z,0
2023-01-01T18:24:07.725Z,0
2023-01-01T18:27:07.705Z,0
2023-01-01T18:30:07.939Z,0
2023-01-01T18:33:07.656Z,0
2023-01-01T18:36:07.735Z,0
2023-01-01T18:39:07.664Z,0
2023-01-01T18:42:07.727Z,0
2023-01-01T18:45:07.634Z,0
2023-01-01T18:48:07.840Z,0
2023-01-01T18:51:07.668Z,0
2023-01-01T18:54:07.701Z,0
2023-01-01T18:57:07.689Z,0
2023-01-01T19:00:07.792Z,0
2023-01-01T19:03:07.952Z,0
2023-01-01T19:06:07.863Z,0
2023-01-01T19:09:07.709Z,0
2023-01-01T19:12:07.672Z,0
2023-01-01T19:15:07.676Z,0
2023-01-01T19:18:07.839Z,0
2023-01-01T19:21:07.713Z,0
2023-01-01T19:24:07.652Z,0
2023-01-01T19:27:07.683Z,0
2023-01-01T19:30:07.693Z,0
2023-01-01T19:33:07.794Z,0
2023-01-01T19:36:07.745Z,0
2023-01-01T19:39:07.637Z,0
2023-01-01T19:42:07.642Z,0
2023-01-01T19:45:07.669Z,0
2023-01-01T19:48:07.664Z,0
2023-01-01T19:51:07.730Z,0
2023-01-01T19:54:07.768Z,0
2023-01-01T19:57:07.700Z,0
2023-01-01T20:00:07.788Z,0
2023-01-01T20:06:07.740Z,0
2023-01-01T20:09:07.689Z,0
2023-01-01T20:12:07.657Z,0
2023-01-01T20:15:07.774Z,0
2023-01-01T20:18:07.622Z,0
2023-01-01T20:21:07.674Z,0
2023-01-01T20:24:07.667Z,0
2023-01-01T20:27:07.795Z,0
2023-01-01T20:30:07.759Z,0
2023-01-01T20:33:07.708Z,0
2023-01-01T20:36:07.816Z,0
2023-01-01T20:39:07.853Z,0
2023-01-01T20:42:07.706Z,0
2023-01-01T20:45:07.718Z,0
2023-01-01T20:48:07.710Z,0
2023-01-01T20:51:07.694Z,0
2023-01-01T20:54:07.766Z,0
2023-01-01T20:57:07.735Z,0
2023-01-01T21:00:07.971Z,0
2023-01-01T21:03:08.116Z,0
2023-01-01T21:06:07.873Z,0
2023-01-01T21:09:07.735Z,0
2023-01-01T21:12:07.730Z,0
2023-01-01T21:15:07.649Z,0
2023-01-01T21:18:07.655Z,0
2023-01-01T21:21:07.727Z,0
2023-01-01T21:24:07.696Z,0
2023-01-01T21:27:07.750Z,0
2023-01-01T21:30:07.764Z,0
2023-01-01T21:33:07.722Z,0
2023-01-01T21:36:07.706Z,0
2023-01-01T21:39:07.644Z,0
2023-01-01T21:42:07.656Z,0
2023-01-01T21:45:07.830Z,0
2023-01-01T21:48:07.705Z,0
2023-01-01T21:51:07.679Z,0
2023-01-01T21:54:07.648Z,0
2023-01-01T21:57:07.749Z,0
2023-01-01T22:00:07.729Z,0
2023-01-01T22:03:07.874Z,0
2023-01-01T22:06:07.711Z,0
2023-01-01T22:09:07.954Z,0
2023-01-01T22:12:07.843Z,0
2023-01-01T22:15:07.694Z,0
2023-01-01T22:18:07.705Z,0
2023-01-01T22:21:07.891Z,0
2023-01-01T22:24:07.679Z,0
2023-01-01T22:27:07.689Z,0
2023-01-01T22:30:07.717Z,0
2023-01-01T22:33:07.613Z,0
2023-01-01T22:36:08.068Z,0
2023-01-01T22:39:07.738Z,0
2023-01-01T22:42:07.705Z,0
2023-01-01T22:45:07.665Z,0
2023-01-01T22:48:07.698Z,0
2023-01-01T22:51:07.657Z,0
2023-01-01T22:54:07.601Z,0
2023-01-01T22:57:07.676Z,0
2023-01-01T23:00:09.155Z,0
2023-01-01T23:03:08.289Z,0
2023-01-01T23:06:07.657Z,0
2023-01-01T23:09:07.630Z,0
2023-01-01T23:12:07.605Z,0
2023-01-01T23:15:07.621Z,0
2023-01-01T23:18:07.652Z,0
2023-01-01T23:21:07.657Z,0
2023-01-01T23:24:07.582Z,0
2023-01-01T23:27:07.549Z,0
2023-01-01T23:30:07.611Z,0
2023-01-01T23:33:07.624Z,0
2023-01-01T23:36:07.601Z,0
2023-01-01T23:39:07.667Z,0
2023-01-01T23:42:07.645Z,0
2023-01-01T23:45:07.712Z,0
2023-01-01T23:48:07.609Z,0
2023-01-01T23:51:07.649Z,0
2023-01-01T23:54:07.640Z,0
2023-01-01T23:57:07.611Z,0
